sensor_id;sensor_type;location;lat;lon;timestamp;P1;durP1;ratioP1;P2;durP2;ratioP2
46036;SDS011;31769;49.304;8.428;2022-07-29T00:02:30;5.32;;;1.98;;
46036;SDS011;31769;49.304;8.428;2022-07-29T00:05:32;4.75;;;2.53;;
46036;SDS011;31769;49.304;8.428;2022-07-29T00:08:33;4.15;;;2.03;;
46036;SDS011;31769;49.304;8.428;2022-07-29T00:11:33;6.93;;;2.63;;
46036;SDS011;31769;49.304;8.428;2022-07-29T00:14:34;5.68;;;2.38;;
46036;SDS011;31769;49.304;8.428;2022-07-29T00:17:35;5.82;;;2.47;;
46036;SDS011;31769;49.304;8.428;2022-07-29T00:20:35;5.50;;;2.22;;
46036;SDS011;31769;49.304;8.428;2022-07-29T00:23:36;8.20;;;2.55;;
46036;SDS011;31769;49.304;8.428;2022-07-29T00:26:37;5.53;;;2.50;;
46036;SDS011;31769;49.304;8.428;2022-07-29T00:29:37;4.45;;;2.38;;
46036;SDS011;31769;49.304;8.428;2022-07-29T00:32:38;4.53;;;2.30;;
46036;SDS011;31769;49.304;8.428;2022-07-29T00:35:39;4.75;;;2.40;;
46036;SDS011;31769;49.304;8.428;2022-07-29T00:38:50;5.45;;;2.40;;
46036;SDS011;31769;49.304;8.428;2022-07-29T00:41:51;5.55;;;2.35;;
46036;SDS011;31769;49.304;8.428;2022-07-29T00:44:52;5.38;;;2.80;;
46036;SDS011;31769;49.304;8.428;2022-07-29T00:47:52;3.15;;;2.30;;
46036;SDS011;31769;49.304;8.428;2022-07-29T00:50:53;4.50;;;2.83;;
46036;SDS011;31769;49.304;8.428;2022-07-29T00:53:55;5.00;;;2.65;;
46036;SDS011;31769;49.304;8.428;2022-07-29T00:56:58;2.30;;;2.10;;
46036;SDS011;31769;49.304;8.428;2022-07-29T00:59:59;4.30;;;2.60;;
46036;SDS011;31769;49.304;8.428;2022-07-29T01:02:59;5.25;;;2.35;;
46036;SDS011;31769;49.304;8.428;2022-07-29T01:06:00;3.40;;;2.67;;
46036;SDS011;31769;49.304;8.428;2022-07-29T01:09:01;3.72;;;2.78;;
46036;SDS011;31769;49.304;8.428;2022-07-29T01:12:02;4.47;;;2.50;;
46036;SDS011;31769;49.304;8.428;2022-07-29T01:15:05;2.70;;;2.45;;
46036;SDS011;31769;49.304;8.428;2022-07-29T01:18:10;3.50;;;2.50;;
46036;SDS011;31769;49.304;8.428;2022-07-29T01:28:33;8.38;;;4.40;;
46036;SDS011;31769;49.304;8.428;2022-07-29T01:31:58;5.10;;;2.88;;
46036;SDS011;31769;49.304;8.428;2022-07-29T01:38:42;6.50;;;2.60;;
46036;SDS011;31769;49.304;8.428;2022-07-29T01:42:29;5.75;;;2.70;;
46036;SDS011;31769;49.304;8.428;2022-07-29T01:48:24;6.10;;;2.83;;
46036;SDS011;31769;49.304;8.428;2022-07-29T01:51:35;3.63;;;2.90;;
46036;SDS011;31769;49.304;8.428;2022-07-29T01:54:51;10.23;;;2.97;;
46036;SDS011;31769;49.304;8.428;2022-07-29T01:57:54;5.43;;;2.67;;
46036;SDS011;31769;49.304;8.428;2022-07-29T02:00:57;4.60;;;3.17;;
46036;SDS011;31769;49.304;8.428;2022-07-29T02:04:01;7.28;;;2.97;;
46036;SDS011;31769;49.304;8.428;2022-07-29T02:07:05;4.65;;;2.80;;
46036;SDS011;31769;49.304;8.428;2022-07-29T02:10:10;4.10;;;2.90;;
46036;SDS011;31769;49.304;8.428;2022-07-29T02:13:12;3.25;;;2.92;;
46036;SDS011;31769;49.304;8.428;2022-07-29T02:16:14;5.53;;;3.22;;
46036;SDS011;31769;49.304;8.428;2022-07-29T02:19:17;7.72;;;3.10;;
46036;SDS011;31769;49.304;8.428;2022-07-29T02:22:19;5.07;;;2.75;;
46036;SDS011;31769;49.304;8.428;2022-07-29T02:25:21;7.18;;;3.63;;
46036;SDS011;31769;49.304;8.428;2022-07-29T02:28:24;8.35;;;3.25;;
46036;SDS011;31769;49.304;8.428;2022-07-29T02:31:30;4.05;;;2.97;;
46036;SDS011;31769;49.304;8.428;2022-07-29T02:34:36;4.72;;;3.13;;
46036;SDS011;31769;49.304;8.428;2022-07-29T02:37:38;4.55;;;2.92;;
46036;SDS011;31769;49.304;8.428;2022-07-29T02:40:40;7.53;;;3.40;;
46036;SDS011;31769;49.304;8.428;2022-07-29T02:43:43;8.35;;;3.58;;
46036;SDS011;31769;49.304;8.428;2022-07-29T02:46:55;8.55;;;3.50;;
46036;SDS011;31769;49.304;8.428;2022-07-29T02:50:17;5.03;;;3.30;;
46036;SDS011;31769;49.304;8.428;2022-07-29T02:53:26;5.72;;;3.20;;
46036;SDS011;31769;49.304;8.428;2022-07-29T02:56:28;6.70;;;3.60;;
46036;SDS011;31769;49.304;8.428;2022-07-29T02:59:35;4.38;;;3.25;;
46036;SDS011;31769;49.304;8.428;2022-07-29T03:02:37;5.45;;;3.72;;
46036;SDS011;31769;49.304;8.428;2022-07-29T03:05:44;5.78;;;3.58;;
46036;SDS011;31769;49.304;8.428;2022-07-29T03:08:45;5.38;;;3.60;;
46036;SDS011;31769;49.304;8.428;2022-07-29T03:11:46;6.15;;;3.20;;
46036;SDS011;31769;49.304;8.428;2022-07-29T03:14:48;9.05;;;3.88;;
46036;SDS011;31769;49.304;8.428;2022-07-29T03:17:49;5.18;;;3.38;;
46036;SDS011;31769;49.304;8.428;2022-07-29T03:20:50;5.18;;;3.60;;
46036;SDS011;31769;49.304;8.428;2022-07-29T03:23:51;9.57;;;3.90;;
46036;SDS011;31769;49.304;8.428;2022-07-29T03:26:52;6.10;;;4.30;;
46036;SDS011;31769;49.304;8.428;2022-07-29T03:29:52;5.82;;;4.13;;
46036;SDS011;31769;49.304;8.428;2022-07-29T03:32:53;4.18;;;3.78;;
46036;SDS011;31769;49.304;8.428;2022-07-29T03:35:54;6.70;;;3.80;;
46036;SDS011;31769;49.304;8.428;2022-07-29T03:38:54;5.45;;;4.22;;
46036;SDS011;31769;49.304;8.428;2022-07-29T03:41:56;4.85;;;4.03;;
46036;SDS011;31769;49.304;8.428;2022-07-29T03:45:03;7.43;;;4.00;;
46036;SDS011;31769;49.304;8.428;2022-07-29T03:48:08;4.30;;;3.50;;
46036;SDS011;31769;49.304;8.428;2022-07-29T03:51:12;6.80;;;3.85;;
46036;SDS011;31769;49.304;8.428;2022-07-29T03:54:13;6.32;;;3.90;;
46036;SDS011;31769;49.304;8.428;2022-07-29T03:57:14;7.10;;;4.55;;
46036;SDS011;31769;49.304;8.428;2022-07-29T04:00:17;7.85;;;4.43;;
46036;SDS011;31769;49.304;8.428;2022-07-29T04:03:19;5.45;;;3.88;;
46036;SDS011;31769;49.304;8.428;2022-07-29T04:06:21;4.55;;;3.75;;
46036;SDS011;31769;49.304;8.428;2022-07-29T04:09:21;6.05;;;3.80;;
46036;SDS011;31769;49.304;8.428;2022-07-29T04:12:22;9.52;;;3.75;;
46036;SDS011;31769;49.304;8.428;2022-07-29T04:15:23;11.48;;;3.50;;
46036;SDS011;31769;49.304;8.428;2022-07-29T04:18:24;6.22;;;3.75;;
46036;SDS011;31769;49.304;8.428;2022-07-29T04:21:25;9.98;;;3.72;;
46036;SDS011;31769;49.304;8.428;2022-07-29T04:24:25;5.82;;;3.78;;
46036;SDS011;31769;49.304;8.428;2022-07-29T04:27:27;17.33;;;4.22;;
46036;SDS011;31769;49.304;8.428;2022-07-29T04:30:27;8.52;;;3.70;;
46036;SDS011;31769;49.304;8.428;2022-07-29T04:33:29;5.22;;;3.85;;
46036;SDS011;31769;49.304;8.428;2022-07-29T04:36:30;11.60;;;4.20;;
46036;SDS011;31769;49.304;8.428;2022-07-29T04:39:30;4.55;;;3.13;;
46036;SDS011;31769;49.304;8.428;2022-07-29T04:42:31;6.65;;;3.55;;
46036;SDS011;31769;49.304;8.428;2022-07-29T04:45:32;5.22;;;3.53;;
46036;SDS011;31769;49.304;8.428;2022-07-29T04:48:32;5.82;;;3.80;;
46036;SDS011;31769;49.304;8.428;2022-07-29T04:51:33;10.27;;;4.00;;
46036;SDS011;31769;49.304;8.428;2022-07-29T04:54:34;7.72;;;3.58;;
46036;SDS011;31769;49.304;8.428;2022-07-29T04:57:35;8.88;;;4.28;;
46036;SDS011;31769;49.304;8.428;2022-07-29T05:00:35;11.25;;;4.68;;
46036;SDS011;31769;49.304;8.428;2022-07-29T05:03:36;6.63;;;3.60;;
46036;SDS011;31769;49.304;8.428;2022-07-29T05:06:37;8.95;;;3.80;;
46036;SDS011;31769;49.304;8.428;2022-07-29T05:09:38;11.38;;;3.67;;
46036;SDS011;31769;49.304;8.428;2022-07-29T05:12:38;7.50;;;3.83;;
46036;SDS011;31769;49.304;8.428;2022-07-29T05:15:39;5.88;;;3.38;;
46036;SDS011;31769;49.304;8.428;2022-07-29T05:18:40;13.60;;;3.30;;
46036;SDS011;31769;49.304;8.428;2022-07-29T05:21:41;10.75;;;3.15;;
46036;SDS011;31769;49.304;8.428;2022-07-29T05:24:42;8.73;;;2.70;;
46036;SDS011;31769;49.304;8.428;2022-07-29T05:27:42;5.55;;;2.90;;
46036;SDS011;31769;49.304;8.428;2022-07-29T05:30:43;10.45;;;3.33;;
46036;SDS011;31769;49.304;8.428;2022-07-29T05:33:44;7.00;;;3.28;;
46036;SDS011;31769;49.304;8.428;2022-07-29T05:36:45;6.00;;;2.97;;
46036;SDS011;31769;49.304;8.428;2022-07-29T05:39:46;7.82;;;3.50;;
46036;SDS011;31769;49.304;8.428;2022-07-29T05:42:47;6.28;;;2.60;;
46036;SDS011;31769;49.304;8.428;2022-07-29T05:45:48;7.60;;;3.53;;
46036;SDS011;31769;49.304;8.428;2022-07-29T05:48:49;6.93;;;2.90;;
46036;SDS011;31769;49.304;8.428;2022-07-29T05:51:49;7.75;;;2.75;;
46036;SDS011;31769;49.304;8.428;2022-07-29T05:54:50;5.18;;;2.45;;
46036;SDS011;31769;49.304;8.428;2022-07-29T05:57:51;3.63;;;2.45;;
46036;SDS011;31769;49.304;8.428;2022-07-29T06:00:52;3.42;;;2.75;;
46036;SDS011;31769;49.304;8.428;2022-07-29T06:03:54;7.97;;;2.78;;
46036;SDS011;31769;49.304;8.428;2022-07-29T06:06:54;5.05;;;3.03;;
46036;SDS011;31769;49.304;8.428;2022-07-29T06:09:55;12.23;;;2.90;;
46036;SDS011;31769;49.304;8.428;2022-07-29T06:12:56;8.82;;;2.80;;
46036;SDS011;31769;49.304;8.428;2022-07-29T06:15:57;5.07;;;3.38;;
46036;SDS011;31769;49.304;8.428;2022-07-29T06:18:58;7.65;;;4.47;;
46036;SDS011;31769;49.304;8.428;2022-07-29T06:21:58;5.63;;;3.65;;
46036;SDS011;31769;49.304;8.428;2022-07-29T06:25:00;6.75;;;3.50;;
46036;SDS011;31769;49.304;8.428;2022-07-29T06:28:01;4.80;;;3.70;;
46036;SDS011;31769;49.304;8.428;2022-07-29T06:31:02;6.22;;;5.25;;
46036;SDS011;31769;49.304;8.428;2022-07-29T06:34:04;7.30;;;5.30;;
46036;SDS011;31769;49.304;8.428;2022-07-29T06:37:08;4.90;;;4.45;;
46036;SDS011;31769;49.304;8.428;2022-07-29T06:40:09;5.55;;;4.78;;
46036;SDS011;31769;49.304;8.428;2022-07-29T06:43:30;8.02;;;4.55;;
46036;SDS011;31769;49.304;8.428;2022-07-29T06:46:34;6.82;;;4.43;;
46036;SDS011;31769;49.304;8.428;2022-07-29T06:49:34;6.28;;;4.45;;
46036;SDS011;31769;49.304;8.428;2022-07-29T06:52:35;5.38;;;4.50;;
46036;SDS011;31769;49.304;8.428;2022-07-29T06:55:36;6.28;;;4.47;;
46036;SDS011;31769;49.304;8.428;2022-07-29T06:58:37;7.47;;;4.40;;
46036;SDS011;31769;49.304;8.428;2022-07-29T07:01:39;5.53;;;4.13;;
46036;SDS011;31769;49.304;8.428;2022-07-29T07:04:41;6.63;;;4.00;;
46036;SDS011;31769;49.304;8.428;2022-07-29T07:07:42;5.40;;;4.00;;
46036;SDS011;31769;49.304;8.428;2022-07-29T07:10:43;7.75;;;4.93;;
46036;SDS011;31769;49.304;8.428;2022-07-29T07:13:44;7.18;;;3.97;;
46036;SDS011;31769;49.304;8.428;2022-07-29T07:16:44;6.10;;;4.28;;
46036;SDS011;31769;49.304;8.428;2022-07-29T07:19:45;7.53;;;4.10;;
46036;SDS011;31769;49.304;8.428;2022-07-29T07:22:46;5.60;;;3.92;;
46036;SDS011;31769;49.304;8.428;2022-07-29T07:25:46;7.05;;;4.72;;
46036;SDS011;31769;49.304;8.428;2022-07-29T07:28:47;4.97;;;3.88;;
46036;SDS011;31769;49.304;8.428;2022-07-29T07:31:48;4.25;;;3.78;;
46036;SDS011;31769;49.304;8.428;2022-07-29T07:34:49;6.10;;;4.60;;
46036;SDS011;31769;49.304;8.428;2022-07-29T07:37:49;5.60;;;3.90;;
46036;SDS011;31769;49.304;8.428;2022-07-29T07:40:50;6.63;;;4.30;;
46036;SDS011;31769;49.304;8.428;2022-07-29T07:43:51;7.70;;;4.05;;
46036;SDS011;31769;49.304;8.428;2022-07-29T07:46:51;6.40;;;3.70;;
46036;SDS011;31769;49.304;8.428;2022-07-29T07:49:52;7.82;;;4.70;;
46036;SDS011;31769;49.304;8.428;2022-07-29T07:52:54;4.93;;;4.07;;
46036;SDS011;31769;49.304;8.428;2022-07-29T07:55:58;6.18;;;3.78;;
46036;SDS011;31769;49.304;8.428;2022-07-29T07:58:59;8.32;;;4.40;;
46036;SDS011;31769;49.304;8.428;2022-07-29T08:02:00;6.05;;;3.70;;
46036;SDS011;31769;49.304;8.428;2022-07-29T08:05:01;7.38;;;3.95;;
46036;SDS011;31769;49.304;8.428;2022-07-29T08:08:01;9.50;;;3.72;;
46036;SDS011;31769;49.304;8.428;2022-07-29T08:11:02;6.10;;;3.55;;
46036;SDS011;31769;49.304;8.428;2022-07-29T08:14:03;5.90;;;3.95;;
46036;SDS011;31769;49.304;8.428;2022-07-29T08:17:04;5.88;;;4.03;;
46036;SDS011;31769;49.304;8.428;2022-07-29T08:20:05;5.45;;;3.80;;
46036;SDS011;31769;49.304;8.428;2022-07-29T08:23:07;4.05;;;3.30;;
46036;SDS011;31769;49.304;8.428;2022-07-29T08:26:11;8.40;;;4.05;;
46036;SDS011;31769;49.304;8.428;2022-07-29T08:29:14;4.00;;;3.60;;
46036;SDS011;31769;49.304;8.428;2022-07-29T08:32:16;5.80;;;3.40;;
46036;SDS011;31769;49.304;8.428;2022-07-29T08:35:16;6.30;;;3.83;;
46036;SDS011;31769;49.304;8.428;2022-07-29T08:38:17;5.82;;;3.17;;
46036;SDS011;31769;49.304;8.428;2022-07-29T08:41:18;6.05;;;3.30;;
46036;SDS011;31769;49.304;8.428;2022-07-29T08:44:19;4.25;;;3.55;;
46036;SDS011;31769;49.304;8.428;2022-07-29T08:47:21;7.28;;;3.55;;
46036;SDS011;31769;49.304;8.428;2022-07-29T08:50:23;4.97;;;3.30;;
46036;SDS011;31769;49.304;8.428;2022-07-29T08:53:24;5.63;;;3.20;;
46036;SDS011;31769;49.304;8.428;2022-07-29T08:56:27;7.88;;;3.70;;
46036;SDS011;31769;49.304;8.428;2022-07-29T08:59:28;9.07;;;3.60;;
46036;SDS011;31769;49.304;8.428;2022-07-29T09:02:35;5.88;;;3.10;;
46036;SDS011;31769;49.304;8.428;2022-07-29T09:05:41;6.97;;;5.68;;
46036;SDS011;31769;49.304;8.428;2022-07-29T09:08:43;4.40;;;3.30;;
46036;SDS011;31769;49.304;8.428;2022-07-29T09:11:44;4.75;;;3.33;;
46036;SDS011;31769;49.304;8.428;2022-07-29T09:14:45;5.85;;;3.38;;
46036;SDS011;31769;49.304;8.428;2022-07-29T09:17:47;4.15;;;3.00;;
46036;SDS011;31769;49.304;8.428;2022-07-29T09:20:51;5.63;;;3.42;;
46036;SDS011;31769;49.304;8.428;2022-07-29T09:24:13;6.35;;;2.95;;
46036;SDS011;31769;49.304;8.428;2022-07-29T09:27:19;7.43;;;3.20;;
46036;SDS011;31769;49.304;8.428;2022-07-29T09:30:22;7.40;;;3.47;;
46036;SDS011;31769;49.304;8.428;2022-07-29T09:33:23;3.85;;;3.00;;
46036;SDS011;31769;49.304;8.428;2022-07-29T09:36:41;4.43;;;3.53;;
46036;SDS011;31769;49.304;8.428;2022-07-29T09:39:44;6.82;;;3.40;;
46036;SDS011;31769;49.304;8.428;2022-07-29T09:42:46;6.03;;;3.67;;
46036;SDS011;31769;49.304;8.428;2022-07-29T09:45:46;5.20;;;3.15;;
46036;SDS011;31769;49.304;8.428;2022-07-29T09:49:07;3.45;;;3.13;;
46036;SDS011;31769;49.304;8.428;2022-07-29T09:52:09;4.78;;;3.33;;
46036;SDS011;31769;49.304;8.428;2022-07-29T09:55:11;4.68;;;3.00;;
46036;SDS011;31769;49.304;8.428;2022-07-29T09:58:16;4.40;;;3.05;;
46036;SDS011;31769;49.304;8.428;2022-07-29T10:01:17;5.75;;;2.90;;
46036;SDS011;31769;49.304;8.428;2022-07-29T10:04:38;10.35;;;3.33;;
46036;SDS011;31769;49.304;8.428;2022-07-29T10:10:50;5.57;;;3.20;;
46036;SDS011;31769;49.304;8.428;2022-07-29T10:13:50;7.57;;;3.22;;
46036;SDS011;31769;49.304;8.428;2022-07-29T10:16:52;8.30;;;3.25;;
46036;SDS011;31769;49.304;8.428;2022-07-29T10:19:53;6.03;;;3.20;;
46036;SDS011;31769;49.304;8.428;2022-07-29T10:22:55;9.98;;;3.83;;
46036;SDS011;31769;49.304;8.428;2022-07-29T10:25:57;6.80;;;3.28;;
46036;SDS011;31769;49.304;8.428;2022-07-29T10:28:58;6.72;;;3.60;;
46036;SDS011;31769;49.304;8.428;2022-07-29T10:32:09;5.03;;;3.38;;
46036;SDS011;31769;49.304;8.428;2022-07-29T10:45:21;6.47;;;3.40;;
46036;SDS011;31769;49.304;8.428;2022-07-29T10:48:22;8.65;;;3.60;;
46036;SDS011;31769;49.304;8.428;2022-07-29T10:51:23;5.13;;;3.22;;
46036;SDS011;31769;49.304;8.428;2022-07-29T10:54:37;8.23;;;4.00;;
46036;SDS011;31769;49.304;8.428;2022-07-29T10:58:10;8.18;;;3.20;;
46036;SDS011;31769;49.304;8.428;2022-07-29T11:01:28;3.80;;;2.88;;
46036;SDS011;31769;49.304;8.428;2022-07-29T11:14:54;4.25;;;2.80;;
46036;SDS011;31769;49.304;8.428;2022-07-29T11:20:58;10.20;;;2.25;;
46036;SDS011;31769;49.304;8.428;2022-07-29T11:27:33;9.02;;;2.50;;
46036;SDS011;31769;49.304;8.428;2022-07-29T11:30:49;10.77;;;2.60;;
46036;SDS011;31769;49.304;8.428;2022-07-29T11:33:51;7.45;;;2.58;;
46036;SDS011;31769;49.304;8.428;2022-07-29T11:40:13;6.03;;;2.35;;
46036;SDS011;31769;49.304;8.428;2022-07-29T11:43:28;4.68;;;2.72;;
46036;SDS011;31769;49.304;8.428;2022-07-29T11:47:02;5.93;;;2.40;;
46036;SDS011;31769;49.304;8.428;2022-07-29T11:50:04;3.35;;;2.17;;
46036;SDS011;31769;49.304;8.428;2022-07-29T11:53:11;3.97;;;2.45;;
46036;SDS011;31769;49.304;8.428;2022-07-29T11:56:12;6.57;;;2.72;;
46036;SDS011;31769;49.304;8.428;2022-07-29T11:59:14;5.72;;;2.22;;
46036;SDS011;31769;49.304;8.428;2022-07-29T12:02:15;6.25;;;2.35;;
46036;SDS011;31769;49.304;8.428;2022-07-29T12:05:16;4.15;;;1.98;;
46036;SDS011;31769;49.304;8.428;2022-07-29T12:08:19;3.10;;;1.70;;
46036;SDS011;31769;49.304;8.428;2022-07-29T12:11:21;3.97;;;2.72;;
46036;SDS011;31769;49.304;8.428;2022-07-29T12:17:33;3.90;;;1.80;;
46036;SDS011;31769;49.304;8.428;2022-07-29T12:20:34;3.97;;;2.03;;
46036;SDS011;31769;49.304;8.428;2022-07-29T12:23:35;5.07;;;1.92;;
46036;SDS011;31769;49.304;8.428;2022-07-29T12:26:36;4.85;;;2.10;;
46036;SDS011;31769;49.304;8.428;2022-07-29T12:30:00;4.32;;;2.38;;
46036;SDS011;31769;49.304;8.428;2022-07-29T12:33:09;4.75;;;2.10;;
46036;SDS011;31769;49.304;8.428;2022-07-29T12:36:17;2.72;;;1.70;;
46036;SDS011;31769;49.304;8.428;2022-07-29T12:39:18;6.80;;;1.95;;
46036;SDS011;31769;49.304;8.428;2022-07-29T12:42:20;3.97;;;2.30;;
46036;SDS011;31769;49.304;8.428;2022-07-29T12:45:28;4.85;;;2.60;;
46036;SDS011;31769;49.304;8.428;2022-07-29T12:48:33;6.45;;;2.50;;
46036;SDS011;31769;49.304;8.428;2022-07-29T12:51:36;5.88;;;3.05;;
46036;SDS011;31769;49.304;8.428;2022-07-29T12:54:46;7.43;;;2.53;;
46036;SDS011;31769;49.304;8.428;2022-07-29T12:57:47;4.82;;;2.38;;
46036;SDS011;31769;49.304;8.428;2022-07-29T13:00:57;6.07;;;2.58;;
46036;SDS011;31769;49.304;8.428;2022-07-29T13:04:03;2.80;;;2.20;;
46036;SDS011;31769;49.304;8.428;2022-07-29T13:07:05;4.32;;;2.40;;
46036;SDS011;31769;49.304;8.428;2022-07-29T13:10:14;5.15;;;1.90;;
46036;SDS011;31769;49.304;8.428;2022-07-29T13:13:16;5.95;;;2.28;;
46036;SDS011;31769;49.304;8.428;2022-07-29T13:16:17;5.00;;;2.08;;
46036;SDS011;31769;49.304;8.428;2022-07-29T13:19:18;1.58;;;1.30;;
46036;SDS011;31769;49.304;8.428;2022-07-29T13:22:20;1.90;;;0.73;;
46036;SDS011;31769;49.304;8.428;2022-07-29T13:25:23;4.25;;;0.98;;
46036;SDS011;31769;49.304;8.428;2022-07-29T13:28:34;3.47;;;1.15;;
46036;SDS011;31769;49.304;8.428;2022-07-29T13:31:35;2.88;;;1.20;;
46036;SDS011;31769;49.304;8.428;2022-07-29T13:34:36;6.68;;;1.60;;
46036;SDS011;31769;49.304;8.428;2022-07-29T13:37:36;1.60;;;1.13;;
46036;SDS011;31769;49.304;8.428;2022-07-29T13:40:40;1.33;;;1.10;;
46036;SDS011;31769;49.304;8.428;2022-07-29T13:43:41;5.95;;;1.63;;
46036;SDS011;31769;49.304;8.428;2022-07-29T13:46:42;5.93;;;1.50;;
46036;SDS011;31769;49.304;8.428;2022-07-29T13:49:42;5.18;;;1.50;;
46036;SDS011;31769;49.304;8.428;2022-07-29T13:52:43;2.88;;;1.30;;
46036;SDS011;31769;49.304;8.428;2022-07-29T13:55:44;2.85;;;1.52;;
46036;SDS011;31769;49.304;8.428;2022-07-29T13:58:45;5.25;;;1.67;;
46036;SDS011;31769;49.304;8.428;2022-07-29T14:01:45;3.25;;;1.27;;
46036;SDS011;31769;49.304;8.428;2022-07-29T14:04:46;3.40;;;1.88;;
46036;SDS011;31769;49.304;8.428;2022-07-29T14:07:47;5.63;;;1.83;;
46036;SDS011;31769;49.304;8.428;2022-07-29T14:10:47;3.25;;;1.58;;
46036;SDS011;31769;49.304;8.428;2022-07-29T14:13:48;5.20;;;1.65;;
46036;SDS011;31769;49.304;8.428;2022-07-29T14:16:49;7.80;;;1.63;;
46036;SDS011;31769;49.304;8.428;2022-07-29T14:19:49;7.85;;;1.60;;
46036;SDS011;31769;49.304;8.428;2022-07-29T14:22:50;10.60;;;1.67;;
46036;SDS011;31769;49.304;8.428;2022-07-29T14:25:51;2.47;;;1.40;;
46036;SDS011;31769;49.304;8.428;2022-07-29T14:28:51;4.47;;;1.35;;
46036;SDS011;31769;49.304;8.428;2022-07-29T14:31:52;6.13;;;1.85;;
46036;SDS011;31769;49.304;8.428;2022-07-29T14:34:53;6.00;;;1.10;;
46036;SDS011;31769;49.304;8.428;2022-07-29T14:37:53;3.40;;;0.90;;
46036;SDS011;31769;49.304;8.428;2022-07-29T14:40:54;3.55;;;1.13;;
46036;SDS011;31769;49.304;8.428;2022-07-29T14:43:55;4.10;;;0.93;;
46036;SDS011;31769;49.304;8.428;2022-07-29T14:46:56;3.20;;;0.70;;
46036;SDS011;31769;49.304;8.428;2022-07-29T14:50:00;3.22;;;0.77;;
46036;SDS011;31769;49.304;8.428;2022-07-29T14:53:01;3.50;;;0.98;;
46036;SDS011;31769;49.304;8.428;2022-07-29T14:56:02;1.98;;;0.52;;
46036;SDS011;31769;49.304;8.428;2022-07-29T14:59:03;4.75;;;0.77;;
46036;SDS011;31769;49.304;8.428;2022-07-29T15:02:04;2.35;;;0.50;;
46036;SDS011;31769;49.304;8.428;2022-07-29T15:05:05;4.63;;;0.50;;
46036;SDS011;31769;49.304;8.428;2022-07-29T15:08:06;1.58;;;0.50;;
46036;SDS011;31769;49.304;8.428;2022-07-29T15:11:08;4.65;;;0.40;;
46036;SDS011;31769;49.304;8.428;2022-07-29T15:14:08;3.83;;;0.65;;
46036;SDS011;31769;49.304;8.428;2022-07-29T15:17:09;2.63;;;0.65;;
46036;SDS011;31769;49.304;8.428;2022-07-29T15:20:11;4.88;;;1.15;;
46036;SDS011;31769;49.304;8.428;2022-07-29T15:23:12;9.10;;;1.25;;
46036;SDS011;31769;49.304;8.428;2022-07-29T15:26:13;4.70;;;1.45;;
46036;SDS011;31769;49.304;8.428;2022-07-29T15:29:14;4.85;;;1.95;;
46036;SDS011;31769;49.304;8.428;2022-07-29T15:32:15;4.55;;;1.65;;
46036;SDS011;31769;49.304;8.428;2022-07-29T15:35:19;5.70;;;3.45;;
46036;SDS011;31769;49.304;8.428;2022-07-29T15:38:19;3.45;;;0.85;;
46036;SDS011;31769;49.304;8.428;2022-07-29T15:41:20;6.88;;;1.50;;
46036;SDS011;31769;49.304;8.428;2022-07-29T15:44:21;1.10;;;0.30;;
46036;SDS011;31769;49.304;8.428;2022-07-29T15:47:22;3.92;;;0.32;;
46036;SDS011;31769;49.304;8.428;2022-07-29T15:50:23;3.13;;;0.47;;
46036;SDS011;31769;49.304;8.428;2022-07-29T15:53:24;3.88;;;0.60;;
46036;SDS011;31769;49.304;8.428;2022-07-29T15:56:25;2.85;;;0.40;;
46036;SDS011;31769;49.304;8.428;2022-07-29T15:59:26;3.42;;;0.40;;
46036;SDS011;31769;49.304;8.428;2022-07-29T16:02:27;2.60;;;0.30;;
46036;SDS011;31769;49.304;8.428;2022-07-29T16:05:28;3.55;;;0.60;;
46036;SDS011;31769;49.304;8.428;2022-07-29T16:08:29;1.02;;;0.35;;
46036;SDS011;31769;49.304;8.428;2022-07-29T16:11:29;1.08;;;0.25;;
46036;SDS011;31769;49.304;8.428;2022-07-29T16:14:30;3.45;;;0.60;;
46036;SDS011;31769;49.304;8.428;2022-07-29T16:17:31;1.70;;;0.40;;
46036;SDS011;31769;49.304;8.428;2022-07-29T16:20:31;1.10;;;0.30;;
46036;SDS011;31769;49.304;8.428;2022-07-29T16:23:35;5.25;;;0.55;;
46036;SDS011;31769;49.304;8.428;2022-07-29T16:26:35;3.67;;;0.43;;
46036;SDS011;31769;49.304;8.428;2022-07-29T16:29:36;2.60;;;0.35;;
46036;SDS011;31769;49.304;8.428;2022-07-29T16:32:37;1.75;;;0.35;;
46036;SDS011;31769;49.304;8.428;2022-07-29T16:35:38;2.35;;;0.38;;
46036;SDS011;31769;49.304;8.428;2022-07-29T16:38:39;6.95;;;0.40;;
46036;SDS011;31769;49.304;8.428;2022-07-29T16:41:41;1.90;;;0.20;;
46036;SDS011;31769;49.304;8.428;2022-07-29T16:44:41;4.22;;;0.25;;
46036;SDS011;31769;49.304;8.428;2022-07-29T16:47:42;3.00;;;0.20;;
46036;SDS011;31769;49.304;8.428;2022-07-29T16:50:42;1.60;;;0.15;;
46036;SDS011;31769;49.304;8.428;2022-07-29T16:53:43;6.05;;;0.55;;
46036;SDS011;31769;49.304;8.428;2022-07-29T16:56:44;1.63;;;0.20;;
46036;SDS011;31769;49.304;8.428;2022-07-29T16:59:45;2.70;;;0.30;;
46036;SDS011;31769;49.304;8.428;2022-07-29T17:02:46;2.88;;;0.20;;
46036;SDS011;31769;49.304;8.428;2022-07-29T17:05:47;2.38;;;0.30;;
46036;SDS011;31769;49.304;8.428;2022-07-29T17:08:48;1.10;;;0.20;;
46036;SDS011;31769;49.304;8.428;2022-07-29T17:11:48;6.90;;;0.40;;
46036;SDS011;31769;49.304;8.428;2022-07-29T17:14:52;2.35;;;0.40;;
46036;SDS011;31769;49.304;8.428;2022-07-29T17:17:53;2.97;;;0.60;;
46036;SDS011;31769;49.304;8.428;2022-07-29T17:20:54;4.00;;;0.40;;
46036;SDS011;31769;49.304;8.428;2022-07-29T17:23:54;5.25;;;0.30;;
46036;SDS011;31769;49.304;8.428;2022-07-29T17:26:55;2.22;;;0.22;;
46036;SDS011;31769;49.304;8.428;2022-07-29T17:29:56;1.65;;;0.40;;
46036;SDS011;31769;49.304;8.428;2022-07-29T17:32:57;2.35;;;0.30;;
46036;SDS011;31769;49.304;8.428;2022-07-29T17:35:58;2.78;;;0.35;;
46036;SDS011;31769;49.304;8.428;2022-07-29T17:39:17;0.70;;;0.32;;
46036;SDS011;31769;49.304;8.428;2022-07-29T17:42:18;2.08;;;0.60;;
46036;SDS011;31769;49.304;8.428;2022-07-29T17:45:19;4.72;;;0.90;;
46036;SDS011;31769;49.304;8.428;2022-07-29T17:48:20;3.25;;;0.75;;
46036;SDS011;31769;49.304;8.428;2022-07-29T17:51:21;4.75;;;0.52;;
46036;SDS011;31769;49.304;8.428;2022-07-29T17:54:23;4.70;;;0.60;;
46036;SDS011;31769;49.304;8.428;2022-07-29T17:57:24;3.10;;;0.60;;
46036;SDS011;31769;49.304;8.428;2022-07-29T18:00:25;4.45;;;0.57;;
46036;SDS011;31769;49.304;8.428;2022-07-29T18:03:26;3.88;;;0.65;;
46036;SDS011;31769;49.304;8.428;2022-07-29T18:06:27;5.47;;;0.68;;
46036;SDS011;31769;49.304;8.428;2022-07-29T18:09:28;20.23;;;1.73;;
46036;SDS011;31769;49.304;8.428;2022-07-29T18:12:29;5.30;;;1.02;;
46036;SDS011;31769;49.304;8.428;2022-07-29T18:15:30;1.80;;;0.70;;
46036;SDS011;31769;49.304;8.428;2022-07-29T18:18:30;5.03;;;0.63;;
46036;SDS011;31769;49.304;8.428;2022-07-29T18:21:31;3.63;;;0.73;;
46036;SDS011;31769;49.304;8.428;2022-07-29T18:24:32;3.20;;;0.85;;
46036;SDS011;31769;49.304;8.428;2022-07-29T18:27:33;9.18;;;0.73;;
46036;SDS011;31769;49.304;8.428;2022-07-29T18:30:34;5.10;;;1.05;;
46036;SDS011;31769;49.304;8.428;2022-07-29T18:33:38;2.25;;;1.08;;
46036;SDS011;31769;49.304;8.428;2022-07-29T18:36:39;5.10;;;1.38;;
46036;SDS011;31769;49.304;8.428;2022-07-29T18:39:40;8.90;;;4.75;;
46036;SDS011;31769;49.304;8.428;2022-07-29T18:42:41;7.38;;;2.30;;
46036;SDS011;31769;49.304;8.428;2022-07-29T18:45:41;7.53;;;1.50;;
46036;SDS011;31769;49.304;8.428;2022-07-29T18:48:42;5.40;;;1.10;;
46036;SDS011;31769;49.304;8.428;2022-07-29T18:51:42;3.40;;;1.13;;
46036;SDS011;31769;49.304;8.428;2022-07-29T18:54:43;5.47;;;1.00;;
46036;SDS011;31769;49.304;8.428;2022-07-29T18:57:44;6.88;;;1.17;;
46036;SDS011;31769;49.304;8.428;2022-07-29T19:00:45;5.13;;;1.10;;
46036;SDS011;31769;49.304;8.428;2022-07-29T19:03:45;4.25;;;1.80;;
46036;SDS011;31769;49.304;8.428;2022-07-29T19:06:46;5.32;;;1.58;;
46036;SDS011;31769;49.304;8.428;2022-07-29T19:09:47;2.90;;;1.40;;
46036;SDS011;31769;49.304;8.428;2022-07-29T19:12:48;9.05;;;1.75;;